createdAt,value
2022-12-14T00:01:48.808Z,26.77
2022-12-14T00:04:17.112Z,27.98
2022-12-14T00:06:44.755Z,20.20
2022-12-14T00:09:12.336Z,24.80
2022-12-14T00:11:40.175Z,20.75
2022-12-14T00:14:07.704Z,19.80
2022-12-14T00:16:36.080Z,17.65
2022-12-14T00:19:05.404Z,22.42
2022-12-14T00:21:32.941Z,22.05
2022-12-14T00:24:01.153Z,22.50
2022-12-14T00:26:32.032Z,19.60
2022-12-14T00:29:01.689Z,21.20
2022-12-14T00:31:31.413Z,22.63
2022-12-14T00:33:59.448Z,24.33
2022-12-14T00:36:28.174Z,20.95
2022-12-14T00:38:55.695Z,18.88
2022-12-14T00:41:23.270Z,22.75
2022-12-14T00:43:50.779Z,21.67
2022-12-14T00:46:18.780Z,21.73
2022-12-14T00:48:46.448Z,16.77
2022-12-14T00:51:14.899Z,27.77
2022-12-14T00:53:44.698Z,22.50
2022-12-14T00:56:13.110Z,17.80
2022-12-14T00:58:40.878Z,22.15
2022-12-14T01:01:13.369Z,19.65
2022-12-14T01:03:41.713Z,24.35
2022-12-14T01:06:29.557Z,15.55
2022-12-14T01:08:57.069Z,26.80
2022-12-14T01:11:24.565Z,23.58
2022-12-14T01:13:52.114Z,28.02
2022-12-14T01:16:19.676Z,24.60
2022-12-14T01:18:47.205Z,22.30
2022-12-14T01:21:21.203Z,23.85
2022-12-14T01:23:52.256Z,23.40
2022-12-14T01:26:21.082Z,22.73
2022-12-14T01:28:51.532Z,19.05
2022-12-14T01:31:21.719Z,26.15
2022-12-14T01:33:49.710Z,19.80
2022-12-14T01:36:20.034Z,26.15
2022-12-14T01:38:48.424Z,23.00
2022-12-14T01:41:27.072Z,18.27
2022-12-14T01:43:57.524Z,26.17
2022-12-14T01:46:34.593Z,21.88
2022-12-14T01:49:24.135Z,20.30
2022-12-14T01:51:57.459Z,19.30
2022-12-14T01:54:27.535Z,19.83
2022-12-14T01:56:56.556Z,22.13
2022-12-14T01:59:30.859Z,19.98
2022-12-14T02:02:00.038Z,20.38
2022-12-14T02:04:28.198Z,28.73
2022-12-14T02:07:00.926Z,24.10
2022-12-14T02:09:40.549Z,17.42
2022-12-14T02:12:17.732Z,20.88
2022-12-14T02:14:46.391Z,22.30
2022-12-14T02:17:15.816Z,21.73
2022-12-14T02:19:46.763Z,20.38
2022-12-14T02:22:42.293Z,21.58
2022-12-14T02:25:33.925Z,20.48
2022-12-14T02:28:22.012Z,24.20
2022-12-14T02:31:11.196Z,19.88
2022-12-14T02:33:38.637Z,23.08
2022-12-14T02:36:25.580Z,18.48
2022-12-14T02:39:12.283Z,19.88
2022-12-14T02:42:14.792Z,24.48
2022-12-14T02:44:57.160Z,18.75
2022-12-14T02:47:54.339Z,23.95
2022-12-14T02:50:28.156Z,19.55
2022-12-14T02:53:10.962Z,24.83
2022-12-14T02:55:45.250Z,22.77
2022-12-14T02:58:18.605Z,26.15
2022-12-14T03:00:46.646Z,22.38
2022-12-14T03:03:14.132Z,21.10
2022-12-14T03:05:41.639Z,24.27
2022-12-14T03:08:17.481Z,23.42
2022-12-14T03:11:03.161Z,23.52
2022-12-14T03:13:36.885Z,24.05
2022-12-14T03:16:08.719Z,21.20
2022-12-14T03:18:41.434Z,18.17
2022-12-14T03:21:13.039Z,16.25
2022-12-14T03:23:42.972Z,23.38
2022-12-14T03:26:20.951Z,21.17
2022-12-14T03:28:52.326Z,22.10
2022-12-14T03:31:44.439Z,20.77
2022-12-14T03:34:20.230Z,22.73
2022-12-14T03:36:58.089Z,20.70
2022-12-14T03:39:33.205Z,17.38
2022-12-14T03:42:19.378Z,18.48
2022-12-14T03:45:06.129Z,20.30
2022-12-14T03:47:51.544Z,18.77
2022-12-14T03:50:23.777Z,20.38
2022-12-14T03:52:58.580Z,18.38
2022-12-14T03:55:56.039Z,19.45
2022-12-14T03:58:44.767Z,19.65
2022-12-14T04:01:18.196Z,22.17
2022-12-14T04:04:01.034Z,20.23
2022-12-14T04:06:40.365Z,18.52
2022-12-14T04:09:20.350Z,21.85
2022-12-14T04:12:24.162Z,22.00
2022-12-14T04:15:17.751Z,22.77
2022-12-14T04:18:05.631Z,22.20
2022-12-14T04:20:43.114Z,21.92
2022-12-14T04:23:52.155Z,22.90
2022-12-14T04:26:27.983Z,21.48
2022-12-14T04:29:19.558Z,25.20
2022-12-14T04:31:52.679Z,24.15
2022-12-14T04:34:24.407Z,22.05
2022-12-14T04:36:58.754Z,19.60
2022-12-14T04:40:11.701Z,21.67
2022-12-14T04:42:53.059Z,21.98
2022-12-14T04:45:26.013Z,21.85
2022-12-14T04:48:01.159Z,23.60
2022-12-14T04:50:35.833Z,21.13
2022-12-14T04:53:21.871Z,21.98
2022-12-14T04:55:58.485Z,23.13
2022-12-14T04:58:29.233Z,19.95
2022-12-14T05:01:35.032Z,25.10
2022-12-14T05:04:16.399Z,21.85
2022-12-14T05:07:02.661Z,19.60
2022-12-14T05:09:56.967Z,21.15
2022-12-14T05:12:53.014Z,19.60
2022-12-14T05:15:26.700Z,23.00
2022-12-14T05:17:55.158Z,19.95
2022-12-14T05:20:25.135Z,21.80
2022-12-14T05:22:52.750Z,25.30
2022-12-14T05:25:20.266Z,23.55
2022-12-14T05:27:47.728Z,17.70
2022-12-14T05:30:15.625Z,21.92
2022-12-14T05:32:43.197Z,20.30
2022-12-14T05:35:13.302Z,21.33
2022-12-14T05:37:41.634Z,20.85
2022-12-14T05:40:10.048Z,22.60
2022-12-14T05:42:44.143Z,25.05
2022-12-14T05:45:13.644Z,20.15
2022-12-14T05:47:41.442Z,28.45
2022-12-14T05:50:09.575Z,22.88
2022-12-14T05:52:37.140Z,20.73
2022-12-14T05:55:05.166Z,23.40
2022-12-14T05:57:32.948Z,24.63
2022-12-14T06:00:00.551Z,26.05
2022-12-14T06:02:28.190Z,21.25
2022-12-14T06:04:55.749Z,18.83
2022-12-14T06:07:27.716Z,21.38
2022-12-14T06:09:55.873Z,23.90
2022-12-14T06:12:23.388Z,25.13
2022-12-14T06:14:50.889Z,24.67
2022-12-14T06:17:18.388Z,23.92
2022-12-14T06:19:49.767Z,17.05
2022-12-14T06:22:18.533Z,22.88
2022-12-14T06:24:45.998Z,19.75
2022-12-14T06:27:13.533Z,22.90
2022-12-14T06:29:41.029Z,19.95
2022-12-14T06:32:08.575Z,20.85
2022-12-14T06:34:39.765Z,23.77
2022-12-14T06:37:08.238Z,21.63
2022-12-14T06:39:35.789Z,17.40
2022-12-14T06:42:03.523Z,23.33
2022-12-14T06:44:31.043Z,22.42
2022-12-14T06:46:58.640Z,19.92
2022-12-14T06:49:26.186Z,18.30
2022-12-14T06:51:53.755Z,15.75
2022-12-14T06:54:21.294Z,19.88
2022-12-14T06:56:48.892Z,20.40
2022-12-14T06:59:17.293Z,18.27
2022-12-14T07:01:49.979Z,22.70
2022-12-14T07:04:21.092Z,17.52
2022-12-14T07:06:48.675Z,18.58
2022-12-14T07:09:16.215Z,20.17
2022-12-14T07:11:43.778Z,17.00
2022-12-14T07:14:17.556Z,23.27
2022-12-14T07:16:48.643Z,16.77
2022-12-14T07:19:16.689Z,18.52
2022-12-14T07:21:44.222Z,18.13
2022-12-14T07:24:11.792Z,16.67
2022-12-14T07:26:39.337Z,18.85
2022-12-14T07:29:07.066Z,19.63
2022-12-14T07:31:34.701Z,17.50
2022-12-14T07:34:02.283Z,18.20
2022-12-14T07:36:32.856Z,19.35
2022-12-14T07:39:00.439Z,16.73
2022-12-14T07:41:31.167Z,17.98
2022-12-14T07:44:01.135Z,31.42
2022-12-14T07:46:32.081Z,27.77
2022-12-14T07:49:00.841Z,22.92
2022-12-14T07:51:30.793Z,26.63
2022-12-14T07:53:59.121Z,21.88
2022-12-14T07:56:29.352Z,21.50
2022-12-14T07:58:58.101Z,19.35
2022-12-14T08:01:28.825Z,23.73
2022-12-14T08:04:00.751Z,16.67
2022-12-14T08:06:30.980Z,17.30
2022-12-14T08:08:59.414Z,17.70
2022-12-14T08:11:27.287Z,21.50
2022-12-14T08:13:59.459Z,21.67
2022-12-14T08:16:27.683Z,20.25
2022-12-14T08:18:57.104Z,20.98
2022-12-14T08:21:25.281Z,27.33
2022-12-14T08:23:54.438Z,26.52
2022-12-14T08:26:24.925Z,23.48
2022-12-14T08:28:57.282Z,28.52
2022-12-14T08:31:27.834Z,21.13
2022-12-14T08:33:55.565Z,27.52
2022-12-14T08:36:26.829Z,27.42
2022-12-14T08:39:21.211Z,23.73
2022-12-14T08:41:48.755Z,26.42
2022-12-14T08:44:18.154Z,31.05
2022-12-14T08:46:45.745Z,25.38
2022-12-14T08:49:13.434Z,25.20
2022-12-14T08:51:41.938Z,24.38
2022-12-14T08:54:09.598Z,29.02
2022-12-14T08:56:37.155Z,28.98
2022-12-14T08:59:04.767Z,30.77
2022-12-14T09:01:34.452Z,28.38
2022-12-14T09:04:07.903Z,23.77
2022-12-14T09:06:39.009Z,24.00
2022-12-14T09:09:15.481Z,24.30
2022-12-14T09:11:44.161Z,25.35
2022-12-14T09:14:11.941Z,24.13
2022-12-14T09:16:40.169Z,26.83
2022-12-14T09:19:07.868Z,19.77
2022-12-14T09:21:35.491Z,22.30
2022-12-14T09:24:03.199Z,27.33
2022-12-14T09:26:30.847Z,23.52
2022-12-14T09:28:58.965Z,34.97
2022-12-14T09:31:28.367Z,25.35
2022-12-14T09:33:56.754Z,29.60
2022-12-14T09:36:26.417Z,26.48
2022-12-14T09:38:55.153Z,23.60
2022-12-14T09:41:35.199Z,21.25
2022-12-14T09:44:18.668Z,26.83
2022-12-14T09:47:03.530Z,20.15
2022-12-14T09:49:43.765Z,20.20
2022-12-14T09:52:16.926Z,26.95
2022-12-14T09:54:49.816Z,19.80
2022-12-14T09:57:34.355Z,16.10
2022-12-14T10:00:02.093Z,28.05
2022-12-14T10:02:42.015Z,19.98
2022-12-14T10:05:37.199Z,22.95
2022-12-14T10:08:29.627Z,20.65
2022-12-14T10:11:19.760Z,15.93
2022-12-14T10:13:50.101Z,19.42
2022-12-14T10:16:43.886Z,25.58
2022-12-14T10:19:57.721Z,20.23
2022-12-14T10:22:38.816Z,16.35
2022-12-14T10:25:19.335Z,20.42
2022-12-14T10:28:12.396Z,15.20
2022-12-14T10:30:42.587Z,19.23
2022-12-14T10:33:18.531Z,17.23
2022-12-14T10:35:51.729Z,19.77
2022-12-14T10:38:33.849Z,19.60
2022-12-14T10:41:13.813Z,21.55
2022-12-14T10:43:54.282Z,21.08
2022-12-14T10:47:00.326Z,17.92
2022-12-14T10:49:31.198Z,20.13
2022-12-14T10:52:09.200Z,16.08
2022-12-14T10:54:45.168Z,21.42
2022-12-14T10:57:27.367Z,21.38
2022-12-14T11:00:08.261Z,19.00
2022-12-14T11:02:41.481Z,19.38
2022-12-14T11:05:38.710Z,18.75
2022-12-14T11:08:08.313Z,17.42
2022-12-14T11:10:39.435Z,18.50
2022-12-14T11:13:15.093Z,16.40
2022-12-14T11:15:45.185Z,21.00
2022-12-14T11:18:12.841Z,16.65
2022-12-14T11:21:15.248Z,20.52
2022-12-14T11:23:46.040Z,20.67
2022-12-14T11:26:27.803Z,21.25
2022-12-14T11:29:00.745Z,18.80
2022-12-14T11:32:01.379Z,20.30
2022-12-14T11:34:41.608Z,15.18
2022-12-14T11:37:32.721Z,19.10
2022-12-14T11:40:03.712Z,20.35
2022-12-14T11:42:31.914Z,20.50
2022-12-14T11:45:31.403Z,16.65
2022-12-14T11:48:17.039Z,18.77
2022-12-14T11:50:46.144Z,22.73
2022-12-14T11:53:16.912Z,18.85
2022-12-14T11:56:05.890Z,19.52
2022-12-14T11:58:39.430Z,17.88
2022-12-14T12:01:21.182Z,19.40
2022-12-14T12:03:54.064Z,15.88
2022-12-14T12:06:28.575Z,14.00
2022-12-14T12:09:04.632Z,16.63
2022-12-14T12:11:34.803Z,15.80
2022-12-14T12:14:23.716Z,16.52
2022-12-14T12:16:53.150Z,16.67
2022-12-14T12:19:28.570Z,16.10
2022-12-14T12:22:00.694Z,14.20
2022-12-14T12:24:34.580Z,17.48
2022-12-14T12:27:12.105Z,18.00
2022-12-14T12:29:49.517Z,18.85
2022-12-14T12:32:23.617Z,15.70
2022-12-14T12:35:11.548Z,12.45
2022-12-14T12:37:46.101Z,14.38
2022-12-14T12:40:35.666Z,13.43
2022-12-14T12:43:06.053Z,12.07
2022-12-14T12:45:54.406Z,11.63
2022-12-14T12:48:39.506Z,13.40
2022-12-14T12:51:13.984Z,11.77
2022-12-14T12:53:49.796Z,13.88
2022-12-14T12:56:21.709Z,13.60
2022-12-14T12:58:53.353Z,12.80
2022-12-14T13:01:24.762Z,11.52
2022-12-14T13:03:56.637Z,10.82
2022-12-14T13:06:41.047Z,9.55
2022-12-14T13:09:28.510Z,10.45
2022-12-14T13:11:58.400Z,10.38
2022-12-14T13:14:42.875Z,11.70
2022-12-14T13:17:29.844Z,11.45
2022-12-14T13:20:00.371Z,11.98
2022-12-14T13:22:30.988Z,12.13
2022-12-14T13:25:03.703Z,9.98
2022-12-14T13:27:55.975Z,9.60
2022-12-14T13:30:29.650Z,7.72
2022-12-14T13:33:16.353Z,10.40
2022-12-14T13:36:01.931Z,10.40
2022-12-14T13:38:35.881Z,11.90
2022-12-14T13:41:28.751Z,13.65
2022-12-14T13:44:33.517Z,8.38
2022-12-14T13:47:07.220Z,9.95
2022-12-14T13:49:36.237Z,10.80
2022-12-14T13:52:03.778Z,8.98
2022-12-14T13:54:34.294Z,16.70
2022-12-14T13:57:08.953Z,12.70
2022-12-14T13:59:42.650Z,12.70
2022-12-14T14:02:36.302Z,10.98
2022-12-14T14:05:16.331Z,10.27
2022-12-14T14:08:04.196Z,11.30
2022-12-14T14:10:35.925Z,11.98
2022-12-14T14:13:29.277Z,8.63
2022-12-14T14:19:17.895Z,15.35
2022-12-14T14:25:01.925Z,11.35
2022-12-14T14:27:37.173Z,9.80
2022-12-14T14:30:24.443Z,10.35
2022-12-14T14:32:53.991Z,10.02
2022-12-14T14:35:37.369Z,11.70
2022-12-14T14:38:26.862Z,11.90
2022-12-14T14:41:16.165Z,10.27
2022-12-14T14:44:01.953Z,8.60
2022-12-14T14:46:48.641Z,9.43
2022-12-14T14:49:28.862Z,9.88
2022-12-14T14:51:56.890Z,11.13
2022-12-14T14:55:03.511Z,9.65
2022-12-14T14:57:35.123Z,10.23
2022-12-14T15:00:05.332Z,8.02
2022-12-14T15:02:39.923Z,13.95
2022-12-14T15:05:41.734Z,12.02
2022-12-14T15:08:06.996Z,9.15
2022-12-14T15:10:46.218Z,6.93
2022-12-14T15:13:26.084Z,7.72
2022-12-14T15:15:56.973Z,10.10
2022-12-14T15:18:28.517Z,15.77
2022-12-14T15:21:05.844Z,10.40
2022-12-14T15:23:57.326Z,8.50
2022-12-14T15:26:30.064Z,12.45
2022-12-14T15:29:00.803Z,12.75
2022-12-14T15:31:42.161Z,10.02
2022-12-14T15:34:18.242Z,11.63
2022-12-14T15:36:47.184Z,9.88
2022-12-14T15:39:37.569Z,15.75
2022-12-14T15:42:19.323Z,12.40
2022-12-14T15:44:55.638Z,11.68
2022-12-14T15:47:32.614Z,14.52
2022-12-14T15:50:32.577Z,12.48
2022-12-14T15:53:09.281Z,13.25
2022-12-14T15:55:42.190Z,14.10
2022-12-14T15:58:22.151Z,14.52
2022-12-14T16:00:53.717Z,14.55
2022-12-14T16:03:50.646Z,15.07
2022-12-14T16:06:20.050Z,19.35
2022-12-14T16:09:08.200Z,15.30
2022-12-14T16:11:39.242Z,16.15
2022-12-14T16:14:24.219Z,20.27
2022-12-14T16:16:56.588Z,17.42
2022-12-14T16:22:11.780Z,16.02
2022-12-14T16:24:53.927Z,17.95
2022-12-14T16:27:22.703Z,15.77
2022-12-14T16:30:18.579Z,19.75
2022-12-14T16:32:50.320Z,20.15
2022-12-14T16:35:30.604Z,26.30
2022-12-14T16:38:16.316Z,17.20
2022-12-14T16:40:55.364Z,19.98
2022-12-14T16:43:37.626Z,21.92
2022-12-14T16:46:06.122Z,18.58
2022-12-14T16:48:40.423Z,23.02
2022-12-14T16:51:37.862Z,23.65
2022-12-14T16:54:25.567Z,22.08
2022-12-14T16:57:02.338Z,24.00
2022-12-14T16:59:39.569Z,28.52
2022-12-14T17:02:26.903Z,31.48
2022-12-14T17:04:56.370Z,26.95
2022-12-14T17:07:28.477Z,26.08
2022-12-14T17:09:57.413Z,25.75
2022-12-14T17:12:27.540Z,24.50
2022-12-14T17:14:55.266Z,27.38
2022-12-14T17:17:33.213Z,21.92
2022-12-14T17:20:00.932Z,24.17
2022-12-14T17:22:34.091Z,27.15
2022-12-14T17:25:02.598Z,30.77
2022-12-14T17:27:30.809Z,25.45
2022-12-14T17:29:58.509Z,34.03
2022-12-14T17:32:30.636Z,28.67
2022-12-14T17:34:59.841Z,28.67
2022-12-14T17:37:34.164Z,31.50
2022-12-14T17:40:03.537Z,26.45
2022-12-14T17:42:31.539Z,32.05
2022-12-14T17:45:00.840Z,24.05
2022-12-14T17:47:28.456Z,31.92
2022-12-14T17:49:56.627Z,32.25
2022-12-14T17:52:33.657Z,32.42
2022-12-14T17:55:01.242Z,32.55
2022-12-14T17:57:28.758Z,37.00
2022-12-14T18:00:10.169Z,27.23
2022-12-14T18:02:39.404Z,23.30
2022-12-14T18:05:08.793Z,33.47
2022-12-14T18:07:36.443Z,30.33
2022-12-14T18:10:04.288Z,27.95
2022-12-14T18:12:31.836Z,30.92
2022-12-14T18:14:59.663Z,34.75
2022-12-14T18:17:27.230Z,39.97
2022-12-14T18:19:54.822Z,32.55
2022-12-14T18:22:23.384Z,31.70
2022-12-14T18:24:51.000Z,24.23
2022-12-14T18:27:18.555Z,29.02
2022-12-14T18:29:46.060Z,33.67
2022-12-14T18:32:14.707Z,27.73
2022-12-14T18:34:42.281Z,34.78
2022-12-14T18:37:09.824Z,31.25
2022-12-14T18:39:37.431Z,34.50
2022-12-14T18:42:05.228Z,33.70
2022-12-14T18:44:32.874Z,30.75
2022-12-14T18:47:20.411Z,36.50
2022-12-14T18:49:48.062Z,34.85
2022-12-14T18:52:15.887Z,29.38
2022-12-14T18:54:43.486Z,36.58
2022-12-14T18:57:11.494Z,32.58
2022-12-14T18:59:42.471Z,42.55
2022-12-14T19:02:15.739Z,42.55
2022-12-14T19:04:48.161Z,40.90
2022-12-14T19:07:16.368Z,41.42
2022-12-14T19:09:43.980Z,39.03
2022-12-14T19:12:12.219Z,35.10
2022-12-14T19:14:40.286Z,41.60
2022-12-14T19:17:08.083Z,40.40
2022-12-14T19:19:41.031Z,33.55
2022-12-14T19:22:11.948Z,35.97
2022-12-14T19:24:39.508Z,44.78
2022-12-14T19:27:07.146Z,33.35
2022-12-14T19:29:35.467Z,36.65
2022-12-14T19:32:05.608Z,31.40
2022-12-14T19:34:33.619Z,29.10
2022-12-14T19:37:01.130Z,28.20
2022-12-14T19:39:28.761Z,29.67
2022-12-14T19:41:56.354Z,29.98
2022-12-14T19:44:23.873Z,28.50
2022-12-14T19:46:51.578Z,27.92
2022-12-14T19:49:19.581Z,34.83
2022-12-14T19:51:47.102Z,33.85
2022-12-14T19:54:14.672Z,34.88
2022-12-14T19:56:42.194Z,34.35
2022-12-14T19:59:09.837Z,20.88
2022-12-14T20:01:39.736Z,30.25
2022-12-14T20:04:11.153Z,30.88
2022-12-14T20:06:38.945Z,25.90
2022-12-14T20:09:07.808Z,22.75
2022-12-14T20:11:35.624Z,20.38
2022-12-14T20:14:03.498Z,26.63
2022-12-14T20:16:31.190Z,25.55
2022-12-14T20:18:59.328Z,16.52
2022-12-14T20:21:29.356Z,21.98
2022-12-14T20:24:00.483Z,19.33
2022-12-14T20:26:29.377Z,22.00
2022-12-14T20:29:01.433Z,17.27
2022-12-14T20:31:29.111Z,21.80
2022-12-14T20:33:56.724Z,19.95
2022-12-14T20:36:24.252Z,23.63
2022-12-14T20:39:01.369Z,20.45
2022-12-14T20:41:31.628Z,25.83
2022-12-14T20:43:59.956Z,17.40
2022-12-14T20:46:27.533Z,22.70
2022-12-14T20:48:56.388Z,23.77
2022-12-14T20:51:24.367Z,21.25
2022-12-14T20:53:51.921Z,20.90
2022-12-14T20:56:21.129Z,23.10
2022-12-14T20:58:49.415Z,22.58
2022-12-14T21:01:18.081Z,24.15
2022-12-14T21:03:47.405Z,19.13
2022-12-14T21:06:17.987Z,21.92
2022-12-14T21:09:08.793Z,23.73
2022-12-14T21:11:55.219Z,19.40
2022-12-14T21:14:24.346Z,22.85
2022-12-14T21:16:51.948Z,25.33
2022-12-14T21:19:20.570Z,18.67
2022-12-14T21:21:53.252Z,19.85
2022-12-14T21:24:44.684Z,18.50
2022-12-14T21:27:14.830Z,24.38
2022-12-14T21:29:42.490Z,18.15
2022-12-14T21:32:10.680Z,21.48
2022-12-14T21:34:41.900Z,18.75
2022-12-14T21:37:10.178Z,21.10
2022-12-14T21:39:38.761Z,21.95
2022-12-14T21:42:13.072Z,19.30
2022-12-14T21:44:43.069Z,22.42
2022-12-14T21:47:19.470Z,19.95
2022-12-14T21:49:47.605Z,22.88
2022-12-14T21:52:20.751Z,21.02
2022-12-14T21:54:48.333Z,26.90
2022-12-14T21:57:38.656Z,20.52
2022-12-14T22:00:08.174Z,21.00
2022-12-14T22:02:36.136Z,17.70
2022-12-14T22:05:04.545Z,21.10
2022-12-14T22:07:34.417Z,20.63
2022-12-14T22:10:02.193Z,20.27
2022-12-14T22:12:29.717Z,18.58
2022-12-14T22:14:57.235Z,20.08
2022-12-14T22:17:24.935Z,17.63
2022-12-14T22:19:54.369Z,20.27
2022-12-14T22:22:22.288Z,16.30
2022-12-14T22:24:50.969Z,23.45
2022-12-14T22:27:19.042Z,21.48
2022-12-14T22:29:46.544Z,23.42
2022-12-14T22:32:14.680Z,30.73
2022-12-14T22:34:42.490Z,21.95
2022-12-14T22:37:10.591Z,29.48
2022-12-14T22:39:38.158Z,32.40
2022-12-14T22:42:05.902Z,25.15
2022-12-14T22:44:33.392Z,28.45
2022-12-14T22:47:00.933Z,29.50
2022-12-14T22:49:28.591Z,22.88
2022-12-14T22:51:56.502Z,26.40
2022-12-14T22:54:27.063Z,28.02
2022-12-14T22:56:58.371Z,20.98
2022-12-14T22:59:34.174Z,22.48
2022-12-14T23:02:01.873Z,25.20
2022-12-14T23:04:29.999Z,27.35
2022-12-14T23:06:57.526Z,29.25
2022-12-14T23:09:42.619Z,22.63
2022-12-14T23:12:27.591Z,28.42
2022-12-14T23:15:12.322Z,30.65
2022-12-14T23:17:57.224Z,24.25
2022-12-14T23:20:42.463Z,28.02
2022-12-14T23:23:28.094Z,29.48
2022-12-14T23:26:13.781Z,22.45
2022-12-14T23:28:58.764Z,29.10
2022-12-14T23:31:44.105Z,28.80
2022-12-14T23:34:28.964Z,21.95
2022-12-14T23:37:19.506Z,21.30
2022-12-14T23:40:05.167Z,24.83
2022-12-14T23:42:49.911Z,29.00
2022-12-14T23:45:35.180Z,26.63
2022-12-14T23:48:20.092Z,29.88
2022-12-14T23:51:04.793Z,27.80
2022-12-14T23:53:50.092Z,27.25
2022-12-14T23:56:35.494Z,24.75
2022-12-14T23:59:20.344Z,26.35
